sensor_id;sensor_type;location;lat;lon;timestamp;P1;durP1;ratioP1;P2;durP2;ratioP2
75216;SDS011;63800;51.972;5.682;2023-11-21T00:01:56;21.48;;;11.90;;
75216;SDS011;63800;51.972;5.682;2023-11-21T00:04:22;24.45;;;12.23;;
75216;SDS011;63800;51.972;5.682;2023-11-21T00:06:47;21.27;;;12.77;;
75216;SDS011;63800;51.972;5.682;2023-11-21T00:09:13;25.55;;;12.57;;
75216;SDS011;63800;51.972;5.682;2023-11-21T00:11:40;23.65;;;12.40;;
75216;SDS011;63800;51.972;5.682;2023-11-21T00:14:07;22.90;;;12.63;;
75216;SDS011;63800;51.972;5.682;2023-11-21T00:16:33;24.10;;;12.32;;
75216;SDS011;63800;51.972;5.682;2023-11-21T00:18:59;22.33;;;11.55;;
75216;SDS011;63800;51.972;5.682;2023-11-21T00:21:24;21.92;;;12.60;;
75216;SDS011;63800;51.972;5.682;2023-11-21T00:23:50;20.92;;;12.55;;
75216;SDS011;63800;51.972;5.682;2023-11-21T00:26:15;22.65;;;12.45;;
75216;SDS011;63800;51.972;5.682;2023-11-21T00:28:40;22.40;;;12.90;;
75216;SDS011;63800;51.972;5.682;2023-11-21T00:31:06;23.02;;;12.02;;
75216;SDS011;63800;51.972;5.682;2023-11-21T00:33:32;22.50;;;12.70;;
75216;SDS011;63800;51.972;5.682;2023-11-21T00:35:57;21.10;;;12.27;;
75216;SDS011;63800;51.972;5.682;2023-11-21T00:38:23;23.63;;;12.98;;
75216;SDS011;63800;51.972;5.682;2023-11-21T00:40:48;20.15;;;10.85;;
75216;SDS011;63800;51.972;5.682;2023-11-21T00:43:13;26.35;;;12.65;;
75216;SDS011;63800;51.972;5.682;2023-11-21T00:45:40;21.98;;;12.43;;
75216;SDS011;63800;51.972;5.682;2023-11-21T00:48:06;23.40;;;11.70;;
75216;SDS011;63800;51.972;5.682;2023-11-21T00:50:33;23.63;;;12.27;;
75216;SDS011;63800;51.972;5.682;2023-11-21T00:52:58;22.55;;;12.30;;
75216;SDS011;63800;51.972;5.682;2023-11-21T00:55:24;21.98;;;12.02;;
75216;SDS011;63800;51.972;5.682;2023-11-21T00:57:51;21.50;;;11.98;;
75216;SDS011;63800;51.972;5.682;2023-11-21T01:00:16;17.65;;;10.30;;
75216;SDS011;63800;51.972;5.682;2023-11-21T01:02:45;13.75;;;8.40;;
75216;SDS011;63800;51.972;5.682;2023-11-21T01:05:11;14.65;;;8.15;;
75216;SDS011;63800;51.972;5.682;2023-11-21T01:07:37;13.27;;;7.72;;
75216;SDS011;63800;51.972;5.682;2023-11-21T01:10:03;14.75;;;9.20;;
75216;SDS011;63800;51.972;5.682;2023-11-21T01:12:32;23.85;;;9.07;;
75216;SDS011;63800;51.972;5.682;2023-11-21T01:14:59;12.80;;;8.35;;
75216;SDS011;63800;51.972;5.682;2023-11-21T01:17:25;11.02;;;7.80;;
75216;SDS011;63800;51.972;5.682;2023-11-21T01:19:51;9.55;;;7.47;;
75216;SDS011;63800;51.972;5.682;2023-11-21T01:22:16;11.32;;;7.90;;
75216;SDS011;63800;51.972;5.682;2023-11-21T01:24:47;13.45;;;8.50;;
75216;SDS011;63800;51.972;5.682;2023-11-21T01:27:12;14.65;;;9.23;;
75216;SDS011;63800;51.972;5.682;2023-11-21T01:29:38;15.60;;;9.27;;
75216;SDS011;63800;51.972;5.682;2023-11-21T01:32:03;13.55;;;8.00;;
75216;SDS011;63800;51.972;5.682;2023-11-21T01:34:29;15.27;;;9.30;;
75216;SDS011;63800;51.972;5.682;2023-11-21T01:36:55;14.88;;;9.27;;
75216;SDS011;63800;51.972;5.682;2023-11-21T01:39:21;17.13;;;10.45;;
75216;SDS011;63800;51.972;5.682;2023-11-21T01:41:49;18.98;;;9.98;;
75216;SDS011;63800;51.972;5.682;2023-11-21T01:44:16;21.52;;;10.85;;
75216;SDS011;63800;51.972;5.682;2023-11-21T01:46:42;17.80;;;10.45;;
75216;SDS011;63800;51.972;5.682;2023-11-21T01:49:07;19.38;;;11.07;;
75216;SDS011;63800;51.972;5.682;2023-11-21T01:51:38;19.90;;;10.68;;
75216;SDS011;63800;51.972;5.682;2023-11-21T01:54:07;19.35;;;10.65;;
75216;SDS011;63800;51.972;5.682;2023-11-21T01:56:32;19.92;;;11.20;;
75216;SDS011;63800;51.972;5.682;2023-11-21T01:58:58;20.33;;;11.15;;
75216;SDS011;63800;51.972;5.682;2023-11-21T02:01:24;21.50;;;11.35;;
75216;SDS011;63800;51.972;5.682;2023-11-21T02:03:50;23.77;;;11.68;;
75216;SDS011;63800;51.972;5.682;2023-11-21T02:06:16;24.80;;;12.60;;
75216;SDS011;63800;51.972;5.682;2023-11-21T02:08:42;35.58;;;14.18;;
75216;SDS011;63800;51.972;5.682;2023-11-21T02:11:09;22.65;;;12.02;;
75216;SDS011;63800;51.972;5.682;2023-11-21T02:13:37;25.55;;;13.02;;
75216;SDS011;63800;51.972;5.682;2023-11-21T02:16:03;22.75;;;11.43;;
75216;SDS011;63800;51.972;5.682;2023-11-21T02:18:30;31.45;;;12.35;;
75216;SDS011;63800;51.972;5.682;2023-11-21T02:20:56;55.72;;;14.05;;
75216;SDS011;63800;51.972;5.682;2023-11-21T02:23:21;29.10;;;12.27;;
75216;SDS011;63800;51.972;5.682;2023-11-21T02:25:48;27.35;;;11.40;;
75216;SDS011;63800;51.972;5.682;2023-11-21T02:28:13;25.58;;;11.55;;
75216;SDS011;63800;51.972;5.682;2023-11-21T02:30:41;33.88;;;11.23;;
75216;SDS011;63800;51.972;5.682;2023-11-21T02:33:07;44.60;;;13.90;;
75216;SDS011;63800;51.972;5.682;2023-11-21T02:35:33;28.65;;;12.20;;
75216;SDS011;63800;51.972;5.682;2023-11-21T02:37:59;30.70;;;12.10;;
75216;SDS011;63800;51.972;5.682;2023-11-21T02:40:25;29.38;;;11.38;;
75216;SDS011;63800;51.972;5.682;2023-11-21T02:42:51;36.13;;;12.75;;
75216;SDS011;63800;51.972;5.682;2023-11-21T02:45:17;25.05;;;10.90;;
75216;SDS011;63800;51.972;5.682;2023-11-21T02:47:45;30.33;;;12.25;;
75216;SDS011;63800;51.972;5.682;2023-11-21T02:50:11;16.55;;;11.07;;
75216;SDS011;63800;51.972;5.682;2023-11-21T02:52:37;15.20;;;10.25;;
75216;SDS011;63800;51.972;5.682;2023-11-21T02:55:03;16.33;;;10.52;;
75216;SDS011;63800;51.972;5.682;2023-11-21T02:57:29;14.98;;;10.15;;
75216;SDS011;63800;51.972;5.682;2023-11-21T02:59:55;15.45;;;10.48;;
75216;SDS011;63800;51.972;5.682;2023-11-21T03:02:20;14.68;;;10.60;;
75216;SDS011;63800;51.972;5.682;2023-11-21T03:04:47;16.25;;;10.13;;
75216;SDS011;63800;51.972;5.682;2023-11-21T03:07:14;15.18;;;10.45;;
75216;SDS011;63800;51.972;5.682;2023-11-21T03:09:40;13.40;;;9.80;;
75216;SDS011;63800;51.972;5.682;2023-11-21T03:12:05;17.48;;;10.68;;
75216;SDS011;63800;51.972;5.682;2023-11-21T03:14:30;15.23;;;10.80;;
75216;SDS011;63800;51.972;5.682;2023-11-21T03:16:56;17.30;;;10.80;;
75216;SDS011;63800;51.972;5.682;2023-11-21T03:19:22;14.80;;;10.48;;
75216;SDS011;63800;51.972;5.682;2023-11-21T03:21:48;15.50;;;10.13;;
75216;SDS011;63800;51.972;5.682;2023-11-21T03:24:13;18.17;;;10.88;;
75216;SDS011;63800;51.972;5.682;2023-11-21T03:26:44;16.55;;;10.60;;
75216;SDS011;63800;51.972;5.682;2023-11-21T03:29:09;18.13;;;10.88;;
75216;SDS011;63800;51.972;5.682;2023-11-21T03:31:35;17.48;;;10.93;;
75216;SDS011;63800;51.972;5.682;2023-11-21T03:34:01;20.80;;;11.77;;
75216;SDS011;63800;51.972;5.682;2023-11-21T03:36:26;17.23;;;11.65;;
75216;SDS011;63800;51.972;5.682;2023-11-21T03:38:52;21.73;;;10.73;;
75216;SDS011;63800;51.972;5.682;2023-11-21T03:41:17;18.55;;;11.80;;
75216;SDS011;63800;51.972;5.682;2023-11-21T03:43:43;18.90;;;11.95;;
75216;SDS011;63800;51.972;5.682;2023-11-21T03:46:09;17.77;;;11.75;;
75216;SDS011;63800;51.972;5.682;2023-11-21T03:48:35;17.88;;;11.57;;
75216;SDS011;63800;51.972;5.682;2023-11-21T03:51:00;18.17;;;11.73;;
75216;SDS011;63800;51.972;5.682;2023-11-21T03:53:26;18.02;;;11.60;;
75216;SDS011;63800;51.972;5.682;2023-11-21T03:55:51;17.35;;;10.55;;
75216;SDS011;63800;51.972;5.682;2023-11-21T03:58:17;18.17;;;11.43;;
75216;SDS011;63800;51.972;5.682;2023-11-21T04:00:42;16.63;;;10.65;;
75216;SDS011;63800;51.972;5.682;2023-11-21T04:03:07;18.30;;;11.23;;
75216;SDS011;63800;51.972;5.682;2023-11-21T04:05:33;19.05;;;11.05;;
75216;SDS011;63800;51.972;5.682;2023-11-21T04:07:58;18.85;;;11.75;;
75216;SDS011;63800;51.972;5.682;2023-11-21T04:10:24;18.83;;;11.80;;
75216;SDS011;63800;51.972;5.682;2023-11-21T04:12:49;18.65;;;11.73;;
75216;SDS011;63800;51.972;5.682;2023-11-21T04:15:14;21.42;;;11.65;;
75216;SDS011;63800;51.972;5.682;2023-11-21T04:17:40;20.45;;;11.48;;
75216;SDS011;63800;51.972;5.682;2023-11-21T04:20:07;20.42;;;11.10;;
75216;SDS011;63800;51.972;5.682;2023-11-21T04:22:38;18.08;;;10.73;;
75216;SDS011;63800;51.972;5.682;2023-11-21T04:25:13;18.92;;;11.07;;
75216;SDS011;63800;51.972;5.682;2023-11-21T04:27:40;19.65;;;11.52;;
75216;SDS011;63800;51.972;5.682;2023-11-21T04:30:08;18.98;;;11.18;;
75216;SDS011;63800;51.972;5.682;2023-11-21T04:32:35;19.77;;;10.95;;
75216;SDS011;63800;51.972;5.682;2023-11-21T04:35:00;19.75;;;10.80;;
75216;SDS011;63800;51.972;5.682;2023-11-21T04:37:26;16.45;;;10.82;;
75216;SDS011;63800;51.972;5.682;2023-11-21T04:39:51;20.17;;;11.30;;
75216;SDS011;63800;51.972;5.682;2023-11-21T04:42:17;20.58;;;11.07;;
75216;SDS011;63800;51.972;5.682;2023-11-21T04:44:42;18.38;;;10.77;;
75216;SDS011;63800;51.972;5.682;2023-11-21T04:47:09;17.58;;;10.40;;
75216;SDS011;63800;51.972;5.682;2023-11-21T04:49:35;17.63;;;10.38;;
75216;SDS011;63800;51.972;5.682;2023-11-21T04:52:00;18.48;;;10.95;;
75216;SDS011;63800;51.972;5.682;2023-11-21T04:54:26;15.23;;;9.98;;
75216;SDS011;63800;51.972;5.682;2023-11-21T04:56:52;18.30;;;10.80;;
75216;SDS011;63800;51.972;5.682;2023-11-21T04:59:17;19.02;;;10.10;;
75216;SDS011;63800;51.972;5.682;2023-11-21T05:01:43;17.48;;;10.00;;
75216;SDS011;63800;51.972;5.682;2023-11-21T05:04:09;16.90;;;10.00;;
75216;SDS011;63800;51.972;5.682;2023-11-21T05:06:34;16.85;;;10.38;;
75216;SDS011;63800;51.972;5.682;2023-11-21T05:09:00;17.98;;;10.30;;
75216;SDS011;63800;51.972;5.682;2023-11-21T05:11:26;17.27;;;10.48;;
75216;SDS011;63800;51.972;5.682;2023-11-21T05:13:52;16.63;;;9.88;;
75216;SDS011;63800;51.972;5.682;2023-11-21T05:16:18;18.42;;;10.48;;
75216;SDS011;63800;51.972;5.682;2023-11-21T05:18:44;15.82;;;10.15;;
75216;SDS011;63800;51.972;5.682;2023-11-21T05:21:10;17.15;;;10.25;;
75216;SDS011;63800;51.972;5.682;2023-11-21T05:23:35;18.38;;;10.07;;
75216;SDS011;63800;51.972;5.682;2023-11-21T05:26:02;18.83;;;10.35;;
75216;SDS011;63800;51.972;5.682;2023-11-21T05:28:28;17.33;;;10.30;;
75216;SDS011;63800;51.972;5.682;2023-11-21T05:30:53;17.23;;;10.25;;
75216;SDS011;63800;51.972;5.682;2023-11-21T05:33:18;17.38;;;10.23;;
75216;SDS011;63800;51.972;5.682;2023-11-21T05:35:44;15.88;;;9.63;;
75216;SDS011;63800;51.972;5.682;2023-11-21T05:38:09;20.67;;;11.23;;
75216;SDS011;63800;51.972;5.682;2023-11-21T05:40:35;16.73;;;9.55;;
75216;SDS011;63800;51.972;5.682;2023-11-21T05:43:02;17.70;;;10.63;;
75216;SDS011;63800;51.972;5.682;2023-11-21T05:45:27;17.17;;;10.52;;
75216;SDS011;63800;51.972;5.682;2023-11-21T05:47:54;23.13;;;11.15;;
75216;SDS011;63800;51.972;5.682;2023-11-21T05:50:20;17.35;;;10.27;;
75216;SDS011;63800;51.972;5.682;2023-11-21T05:52:46;16.35;;;9.63;;
75216;SDS011;63800;51.972;5.682;2023-11-21T05:55:12;18.60;;;10.23;;
75216;SDS011;63800;51.972;5.682;2023-11-21T05:57:38;18.60;;;9.65;;
75216;SDS011;63800;51.972;5.682;2023-11-21T06:00:05;18.15;;;10.30;;
75216;SDS011;63800;51.972;5.682;2023-11-21T06:02:40;20.13;;;9.90;;
75216;SDS011;63800;51.972;5.682;2023-11-21T06:05:07;21.75;;;10.20;;
75216;SDS011;63800;51.972;5.682;2023-11-21T06:07:33;17.98;;;9.52;;
75216;SDS011;63800;51.972;5.682;2023-11-21T06:10:00;18.08;;;9.55;;
75216;SDS011;63800;51.972;5.682;2023-11-21T06:12:27;17.73;;;10.15;;
75216;SDS011;63800;51.972;5.682;2023-11-21T06:14:53;17.00;;;9.60;;
75216;SDS011;63800;51.972;5.682;2023-11-21T06:17:19;16.70;;;9.75;;
75216;SDS011;63800;51.972;5.682;2023-11-21T06:19:44;16.80;;;10.15;;
75216;SDS011;63800;51.972;5.682;2023-11-21T06:22:11;16.85;;;10.32;;
75216;SDS011;63800;51.972;5.682;2023-11-21T06:24:36;17.92;;;10.27;;
75216;SDS011;63800;51.972;5.682;2023-11-21T06:27:03;18.33;;;9.98;;
75216;SDS011;63800;51.972;5.682;2023-11-21T06:29:29;17.88;;;11.15;;
75216;SDS011;63800;51.972;5.682;2023-11-21T06:31:55;19.60;;;10.02;;
75216;SDS011;63800;51.972;5.682;2023-11-21T06:34:21;18.05;;;10.73;;
75216;SDS011;63800;51.972;5.682;2023-11-21T06:36:46;17.40;;;10.15;;
75216;SDS011;63800;51.972;5.682;2023-11-21T06:39:12;20.27;;;10.85;;
75216;SDS011;63800;51.972;5.682;2023-11-21T06:41:40;20.08;;;11.10;;
75216;SDS011;63800;51.972;5.682;2023-11-21T06:44:05;20.83;;;10.75;;
75216;SDS011;63800;51.972;5.682;2023-11-21T06:46:31;21.10;;;10.73;;
75216;SDS011;63800;51.972;5.682;2023-11-21T06:48:56;22.85;;;10.70;;
75216;SDS011;63800;51.972;5.682;2023-11-21T06:51:21;25.38;;;11.13;;
75216;SDS011;63800;51.972;5.682;2023-11-21T06:53:47;21.25;;;10.32;;
75216;SDS011;63800;51.972;5.682;2023-11-21T06:56:18;23.77;;;11.10;;
75216;SDS011;63800;51.972;5.682;2023-11-21T06:58:47;19.95;;;10.57;;
75216;SDS011;63800;51.972;5.682;2023-11-21T07:01:13;19.02;;;10.95;;
75216;SDS011;63800;51.972;5.682;2023-11-21T07:03:39;17.98;;;10.57;;
75216;SDS011;63800;51.972;5.682;2023-11-21T07:06:04;20.77;;;10.70;;
75216;SDS011;63800;51.972;5.682;2023-11-21T07:08:30;21.90;;;11.35;;
75216;SDS011;63800;51.972;5.682;2023-11-21T07:10:56;22.67;;;10.55;;
75216;SDS011;63800;51.972;5.682;2023-11-21T07:13:21;21.42;;;10.60;;
75216;SDS011;63800;51.972;5.682;2023-11-21T07:15:47;21.63;;;11.25;;
75216;SDS011;63800;51.972;5.682;2023-11-21T07:18:13;19.33;;;10.90;;
75216;SDS011;63800;51.972;5.682;2023-11-21T07:20:38;21.30;;;10.55;;
75216;SDS011;63800;51.972;5.682;2023-11-21T07:23:04;22.13;;;11.30;;
75216;SDS011;63800;51.972;5.682;2023-11-21T07:25:30;20.20;;;11.35;;
75216;SDS011;63800;51.972;5.682;2023-11-21T07:27:56;19.15;;;11.05;;
75216;SDS011;63800;51.972;5.682;2023-11-21T07:30:22;19.23;;;10.93;;
75216;SDS011;63800;51.972;5.682;2023-11-21T07:32:48;22.63;;;11.43;;
75216;SDS011;63800;51.972;5.682;2023-11-21T07:35:14;22.50;;;12.07;;
75216;SDS011;63800;51.972;5.682;2023-11-21T07:37:39;19.10;;;10.77;;
75216;SDS011;63800;51.972;5.682;2023-11-21T07:40:05;21.85;;;10.73;;
75216;SDS011;63800;51.972;5.682;2023-11-21T07:42:33;23.75;;;11.60;;
75216;SDS011;63800;51.972;5.682;2023-11-21T07:44:59;23.63;;;11.52;;
75216;SDS011;63800;51.972;5.682;2023-11-21T07:47:25;25.45;;;11.40;;
75216;SDS011;63800;51.972;5.682;2023-11-21T07:49:52;20.45;;;11.45;;
75216;SDS011;63800;51.972;5.682;2023-11-21T07:52:18;24.92;;;12.45;;
75216;SDS011;63800;51.972;5.682;2023-11-21T07:54:46;22.02;;;10.35;;
75216;SDS011;63800;51.972;5.682;2023-11-21T07:57:11;19.83;;;10.77;;
75216;SDS011;63800;51.972;5.682;2023-11-21T07:59:38;22.65;;;11.65;;
75216;SDS011;63800;51.972;5.682;2023-11-21T08:02:05;23.60;;;12.18;;
75216;SDS011;63800;51.972;5.682;2023-11-21T08:04:31;18.15;;;11.23;;
75216;SDS011;63800;51.972;5.682;2023-11-21T08:06:57;24.08;;;12.65;;
75216;SDS011;63800;51.972;5.682;2023-11-21T08:09:22;26.42;;;12.75;;
75216;SDS011;63800;51.972;5.682;2023-11-21T08:11:48;23.63;;;12.93;;
75216;SDS011;63800;51.972;5.682;2023-11-21T08:14:15;20.67;;;11.77;;
75216;SDS011;63800;51.972;5.682;2023-11-21T08:16:40;22.88;;;11.90;;
75216;SDS011;63800;51.972;5.682;2023-11-21T08:19:06;24.10;;;12.48;;
75216;SDS011;63800;51.972;5.682;2023-11-21T08:21:33;21.25;;;10.85;;
75216;SDS011;63800;51.972;5.682;2023-11-21T08:23:59;21.33;;;11.65;;
75216;SDS011;63800;51.972;5.682;2023-11-21T08:26:25;20.45;;;11.77;;
75216;SDS011;63800;51.972;5.682;2023-11-21T08:28:51;22.27;;;12.32;;
75216;SDS011;63800;51.972;5.682;2023-11-21T08:31:27;21.55;;;11.65;;
75216;SDS011;63800;51.972;5.682;2023-11-21T08:33:53;22.17;;;11.52;;
75216;SDS011;63800;51.972;5.682;2023-11-21T08:36:22;20.67;;;12.00;;
75216;SDS011;63800;51.972;5.682;2023-11-21T08:38:49;22.17;;;11.95;;
75216;SDS011;63800;51.972;5.682;2023-11-21T08:41:17;21.08;;;10.98;;
75216;SDS011;63800;51.972;5.682;2023-11-21T08:43:42;21.50;;;11.02;;
75216;SDS011;63800;51.972;5.682;2023-11-21T08:46:08;20.45;;;10.90;;
75216;SDS011;63800;51.972;5.682;2023-11-21T08:48:34;21.10;;;11.20;;
75216;SDS011;63800;51.972;5.682;2023-11-21T08:51:01;22.33;;;12.05;;
75216;SDS011;63800;51.972;5.682;2023-11-21T08:53:26;23.35;;;12.88;;
75216;SDS011;63800;51.972;5.682;2023-11-21T08:55:52;22.35;;;12.18;;
75216;SDS011;63800;51.972;5.682;2023-11-21T08:58:18;24.23;;;12.93;;
75216;SDS011;63800;51.972;5.682;2023-11-21T09:00:44;22.85;;;11.77;;
75216;SDS011;63800;51.972;5.682;2023-11-21T09:03:11;24.48;;;13.50;;
75216;SDS011;63800;51.972;5.682;2023-11-21T09:05:38;25.58;;;13.07;;
75216;SDS011;63800;51.972;5.682;2023-11-21T09:08:04;26.60;;;13.38;;
75216;SDS011;63800;51.972;5.682;2023-11-21T09:10:29;24.23;;;13.00;;
75216;SDS011;63800;51.972;5.682;2023-11-21T09:12:55;25.42;;;13.45;;
75216;SDS011;63800;51.972;5.682;2023-11-21T09:15:21;25.77;;;12.60;;
75216;SDS011;63800;51.972;5.682;2023-11-21T09:17:46;25.48;;;13.23;;
75216;SDS011;63800;51.972;5.682;2023-11-21T09:20:12;25.92;;;12.55;;
75216;SDS011;63800;51.972;5.682;2023-11-21T09:22:39;32.30;;;14.38;;
75216;SDS011;63800;51.972;5.682;2023-11-21T09:25:05;26.30;;;12.68;;
75216;SDS011;63800;51.972;5.682;2023-11-21T09:27:32;26.63;;;13.35;;
75216;SDS011;63800;51.972;5.682;2023-11-21T09:29:57;25.00;;;12.45;;
75216;SDS011;63800;51.972;5.682;2023-11-21T09:32:23;28.25;;;13.63;;
75216;SDS011;63800;51.972;5.682;2023-11-21T09:34:49;26.63;;;13.85;;
75216;SDS011;63800;51.972;5.682;2023-11-21T09:37:15;27.48;;;13.77;;
75216;SDS011;63800;51.972;5.682;2023-11-21T09:39:41;30.23;;;14.80;;
75216;SDS011;63800;51.972;5.682;2023-11-21T09:42:13;30.80;;;15.00;;
75216;SDS011;63800;51.972;5.682;2023-11-21T09:45:03;28.65;;;14.18;;
75216;SDS011;63800;51.972;5.682;2023-11-21T09:47:38;31.63;;;15.23;;
75216;SDS011;63800;51.972;5.682;2023-11-21T09:50:04;29.25;;;13.98;;
75216;SDS011;63800;51.972;5.682;2023-11-21T09:52:33;26.40;;;13.45;;
75216;SDS011;63800;51.972;5.682;2023-11-21T09:55:18;24.77;;;13.88;;
75216;SDS011;63800;51.972;5.682;2023-11-21T09:57:47;26.08;;;13.50;;
75216;SDS011;63800;51.972;5.682;2023-11-21T10:00:16;23.02;;;12.65;;
75216;SDS011;63800;51.972;5.682;2023-11-21T10:02:48;21.83;;;12.63;;
75216;SDS011;63800;51.972;5.682;2023-11-21T10:05:14;21.33;;;11.82;;
75216;SDS011;63800;51.972;5.682;2023-11-21T10:07:42;18.92;;;10.43;;
75216;SDS011;63800;51.972;5.682;2023-11-21T10:10:09;19.58;;;10.75;;
75216;SDS011;63800;51.972;5.682;2023-11-21T10:12:36;19.70;;;10.90;;
75216;SDS011;63800;51.972;5.682;2023-11-21T10:15:03;18.33;;;10.90;;
75216;SDS011;63800;51.972;5.682;2023-11-21T10:17:34;17.75;;;10.48;;
75216;SDS011;63800;51.972;5.682;2023-11-21T10:20:08;18.88;;;10.63;;
75216;SDS011;63800;51.972;5.682;2023-11-21T10:22:37;19.10;;;9.90;;
75216;SDS011;63800;51.972;5.682;2023-11-21T10:25:06;17.50;;;9.95;;
75216;SDS011;63800;51.972;5.682;2023-11-21T10:27:33;19.48;;;11.15;;
75216;SDS011;63800;51.972;5.682;2023-11-21T10:30:02;18.98;;;10.55;;
75216;SDS011;63800;51.972;5.682;2023-11-21T10:32:31;17.90;;;9.88;;
75216;SDS011;63800;51.972;5.682;2023-11-21T10:34:58;17.20;;;9.90;;
75216;SDS011;63800;51.972;5.682;2023-11-21T10:37:32;18.45;;;9.88;;
75216;SDS011;63800;51.972;5.682;2023-11-21T10:40:01;18.85;;;10.23;;
75216;SDS011;63800;51.972;5.682;2023-11-21T10:42:26;17.27;;;10.88;;
75216;SDS011;63800;51.972;5.682;2023-11-21T10:44:52;18.38;;;10.82;;
75216;SDS011;63800;51.972;5.682;2023-11-21T10:47:19;17.20;;;10.40;;
75216;SDS011;63800;51.972;5.682;2023-11-21T10:49:45;17.20;;;10.48;;
75216;SDS011;63800;51.972;5.682;2023-11-21T10:52:13;20.00;;;10.85;;
75216;SDS011;63800;51.972;5.682;2023-11-21T10:54:42;16.27;;;10.70;;
75216;SDS011;63800;51.972;5.682;2023-11-21T10:57:08;17.70;;;10.40;;
75216;SDS011;63800;51.972;5.682;2023-11-21T10:59:35;18.45;;;9.98;;
75216;SDS011;63800;51.972;5.682;2023-11-21T11:02:02;18.98;;;10.48;;
75216;SDS011;63800;51.972;5.682;2023-11-21T11:04:41;18.92;;;10.82;;
75216;SDS011;63800;51.972;5.682;2023-11-21T11:07:08;19.25;;;11.40;;
75216;SDS011;63800;51.972;5.682;2023-11-21T11:09:37;16.83;;;10.27;;
75216;SDS011;63800;51.972;5.682;2023-11-21T11:12:02;18.63;;;10.32;;
75216;SDS011;63800;51.972;5.682;2023-11-21T11:14:31;17.25;;;10.02;;
75216;SDS011;63800;51.972;5.682;2023-11-21T11:16:57;15.95;;;9.27;;
75216;SDS011;63800;51.972;5.682;2023-11-21T11:19:24;17.02;;;9.38;;
75216;SDS011;63800;51.972;5.682;2023-11-21T11:35:18;21.10;;;10.27;;
75216;SDS011;63800;51.972;5.682;2023-11-21T11:40:38;16.13;;;8.32;;
75216;SDS011;63800;51.972;5.682;2023-11-21T11:43:05;16.60;;;9.27;;
75216;SDS011;63800;51.972;5.682;2023-11-21T11:45:32;16.30;;;9.70;;
75216;SDS011;63800;51.972;5.682;2023-11-21T11:47:59;15.93;;;9.52;;
75216;SDS011;63800;51.972;5.682;2023-11-21T11:50:25;18.40;;;10.23;;
75216;SDS011;63800;51.972;5.682;2023-11-21T11:52:55;17.92;;;10.13;;
75216;SDS011;63800;51.972;5.682;2023-11-21T11:55:36;19.33;;;10.18;;
75216;SDS011;63800;51.972;5.682;2023-11-21T11:58:04;19.08;;;10.60;;
75216;SDS011;63800;51.972;5.682;2023-11-21T12:00:34;17.40;;;9.60;;
75216;SDS011;63800;51.972;5.682;2023-11-21T12:03:06;14.95;;;8.18;;
75216;SDS011;63800;51.972;5.682;2023-11-21T12:05:34;15.98;;;8.52;;
75216;SDS011;63800;51.972;5.682;2023-11-21T12:08:10;13.85;;;7.60;;
75216;SDS011;63800;51.972;5.682;2023-11-21T12:10:37;12.60;;;7.65;;
75216;SDS011;63800;51.972;5.682;2023-11-21T12:13:10;14.77;;;7.43;;
75216;SDS011;63800;51.972;5.682;2023-11-21T12:15:39;15.00;;;7.65;;
75216;SDS011;63800;51.972;5.682;2023-11-21T12:18:06;12.40;;;7.28;;
75216;SDS011;63800;51.972;5.682;2023-11-21T12:20:32;12.52;;;6.85;;
75216;SDS011;63800;51.972;5.682;2023-11-21T12:23:03;10.52;;;6.55;;
75216;SDS011;63800;51.972;5.682;2023-11-21T12:25:30;10.27;;;5.85;;
75216;SDS011;63800;51.972;5.682;2023-11-21T12:28:00;11.88;;;6.57;;
75216;SDS011;63800;51.972;5.682;2023-11-21T12:30:31;10.13;;;6.00;;
75216;SDS011;63800;51.972;5.682;2023-11-21T12:33:00;10.65;;;5.75;;
75216;SDS011;63800;51.972;5.682;2023-11-21T12:35:27;9.63;;;6.38;;
75216;SDS011;63800;51.972;5.682;2023-11-21T12:37:54;10.52;;;5.85;;
75216;SDS011;63800;51.972;5.682;2023-11-21T12:40:22;11.82;;;5.82;;
75216;SDS011;63800;51.972;5.682;2023-11-21T12:42:48;9.68;;;6.22;;
75216;SDS011;63800;51.972;5.682;2023-11-21T12:47:49;8.95;;;5.82;;
75216;SDS011;63800;51.972;5.682;2023-11-21T12:50:24;10.65;;;6.35;;
75216;SDS011;63800;51.972;5.682;2023-11-21T12:52:54;11.40;;;6.90;;
75216;SDS011;63800;51.972;5.682;2023-11-21T12:55:23;10.85;;;6.57;;
75216;SDS011;63800;51.972;5.682;2023-11-21T12:57:49;13.45;;;7.53;;
75216;SDS011;63800;51.972;5.682;2023-11-21T13:00:32;12.68;;;7.28;;
75216;SDS011;63800;51.972;5.682;2023-11-21T13:03:02;17.05;;;8.88;;
75216;SDS011;63800;51.972;5.682;2023-11-21T13:05:30;17.30;;;9.07;;
75216;SDS011;63800;51.972;5.682;2023-11-21T13:07:56;15.90;;;9.40;;
75216;SDS011;63800;51.972;5.682;2023-11-21T13:10:27;17.98;;;9.13;;
75216;SDS011;63800;51.972;5.682;2023-11-21T13:12:55;15.30;;;8.57;;
75216;SDS011;63800;51.972;5.682;2023-11-21T13:15:25;17.00;;;9.25;;
75216;SDS011;63800;51.972;5.682;2023-11-21T13:17:51;20.05;;;10.23;;
75216;SDS011;63800;51.972;5.682;2023-11-21T13:20:18;15.50;;;8.82;;
75216;SDS011;63800;51.972;5.682;2023-11-21T13:22:51;17.08;;;9.45;;
75216;SDS011;63800;51.972;5.682;2023-11-21T13:25:24;17.00;;;9.50;;
75216;SDS011;63800;51.972;5.682;2023-11-21T13:27:52;17.48;;;9.35;;
75216;SDS011;63800;51.972;5.682;2023-11-21T13:30:21;15.15;;;9.23;;
75216;SDS011;63800;51.972;5.682;2023-11-21T13:32:48;17.70;;;9.95;;
75216;SDS011;63800;51.972;5.682;2023-11-21T13:35:17;17.05;;;9.63;;
75216;SDS011;63800;51.972;5.682;2023-11-21T13:37:49;18.58;;;10.63;;
75216;SDS011;63800;51.972;5.682;2023-11-21T13:40:20;15.48;;;8.85;;
75216;SDS011;63800;51.972;5.682;2023-11-21T13:42:50;18.05;;;9.57;;
75216;SDS011;63800;51.972;5.682;2023-11-21T13:45:22;16.42;;;9.23;;
75216;SDS011;63800;51.972;5.682;2023-11-21T13:47:51;18.88;;;9.52;;
75216;SDS011;63800;51.972;5.682;2023-11-21T13:50:21;15.65;;;9.15;;
75216;SDS011;63800;51.972;5.682;2023-11-21T13:52:55;13.68;;;8.77;;
75216;SDS011;63800;51.972;5.682;2023-11-21T13:55:21;15.80;;;8.52;;
75216;SDS011;63800;51.972;5.682;2023-11-21T13:57:50;15.23;;;9.23;;
75216;SDS011;63800;51.972;5.682;2023-11-21T14:00:16;16.45;;;9.48;;
75216;SDS011;63800;51.972;5.682;2023-11-21T14:03:06;13.50;;;7.72;;
75216;SDS011;63800;51.972;5.682;2023-11-21T14:05:42;15.85;;;8.10;;
75216;SDS011;63800;51.972;5.682;2023-11-21T14:08:09;16.85;;;8.98;;
75216;SDS011;63800;51.972;5.682;2023-11-21T14:10:37;14.88;;;7.95;;
75216;SDS011;63800;51.972;5.682;2023-11-21T14:13:08;16.20;;;8.52;;
75216;SDS011;63800;51.972;5.682;2023-11-21T14:15:35;13.82;;;7.55;;
75216;SDS011;63800;51.972;5.682;2023-11-21T14:18:06;12.35;;;6.68;;
75216;SDS011;63800;51.972;5.682;2023-11-21T14:20:35;10.48;;;5.53;;
75216;SDS011;63800;51.972;5.682;2023-11-21T14:23:02;9.98;;;5.43;;
75216;SDS011;63800;51.972;5.682;2023-11-21T14:25:32;10.38;;;5.70;;
75216;SDS011;63800;51.972;5.682;2023-11-21T14:27:58;11.25;;;5.95;;
75216;SDS011;63800;51.972;5.682;2023-11-21T14:30:24;11.75;;;5.93;;
75216;SDS011;63800;51.972;5.682;2023-11-21T14:32:50;13.10;;;6.03;;
75216;SDS011;63800;51.972;5.682;2023-11-21T14:35:16;11.77;;;5.85;;
75216;SDS011;63800;51.972;5.682;2023-11-21T14:37:42;12.63;;;6.68;;
75216;SDS011;63800;51.972;5.682;2023-11-21T14:40:08;13.82;;;7.10;;
75216;SDS011;63800;51.972;5.682;2023-11-21T14:42:34;13.80;;;7.10;;
75216;SDS011;63800;51.972;5.682;2023-11-21T14:45:03;14.35;;;6.63;;